Flight Track Log - Related Links

Times and Time Zones

All times are in EDT time to prevent confusion due to time zone crossing. See the N723NE flight status page for this flight to view local times or setup timezone preferences in your user account.

Time Position Orientation Groundspeed Altitude Reporting Facility
EDT Latitude Longitude Course Direction KTS MPH feet Rate Location/Type
Wed 10:29:00 PM 41.4103 -72.1103 276° West 107 123 4,400  Level Boston Center
Wed 10:30:01 PM 41.4075 -72.1500 265° West 107 123 4,400 98 Level Boston Center
Wed 10:31:02 PM 41.4022 -72.1939 261° West 119 137 4,600 98 Climbing Boston Center
Wed 10:32:03 PM 41.3986 -72.2375 264° West 119 137 4,600  Level Boston Center
Wed 10:33:00 PM 41.2765 -72.3174 270° West  Level Estimated
Wed 10:33:04 PM 41.4000 -72.2819 272° West 119 137 4,600  Level Boston Center
Wed 10:34:00 PM 41.2806 -72.3650 276° West  Level Estimated
Wed 10:34:05 PM 41.3978 -72.3294 266° West 119 137 4,600  Level Boston Center
Wed 10:35:06 PM 41.3964 -72.3731 268° West 119 137 4,600  Level Boston Center
Wed 10:36:07 PM 41.3961 -72.4181 270° West 119 137 4,600  Level Boston Center
Wed 10:37:08 PM 41.3981 -72.4636 273° West 120 138 4,600  Level Boston Center
Wed 10:38:09 PM 41.3981 -72.5100 270° West 120 138 4,600  Level Boston Center
Wed 10:39:10 PM 41.3969 -72.5544 268° West 122 140 4,600  Level Boston Center
Wed 10:40:11 PM 41.3981 -72.5997 272° West 124 143 4,600 -49 Level Boston Center
Wed 10:41:12 PM 41.3967 -72.6458 268° West 124 143 4,500 -49 Descending Boston Center
Wed 10:42:13 PM 41.3989 -72.6922 274° West 124 143 4,500  Level Boston Center
Wed 10:43:14 PM 41.3983 -72.7406 269° West 124 143 4,500  Level Boston Center
Wed 10:44:15 PM 41.3956 -72.7856 265° West 124 143 4,500 -49 Level Boston Center
Wed 10:45:16 PM 41.3925 -72.8325 265° West 124 143 4,400 -295 Descending Boston Center
Wed 10:46:17 PM 41.3933 -72.8831 271° West 134 154 3,900 -344 Descending Boston Center
Wed 10:47:18 PM 41.3919 -72.9336 268° West 136 157 3,700 -197 Descending Boston Center
Wed 10:48:19 PM 41.3903 -72.9875 268° West 136 157 3,500 -197 Descending Boston Center
Wed 10:49:20 PM 41.3886 -73.0356 267° West 135 155 3,300 -148 Descending Boston Center
Wed 10:50:21 PM 41.3833 -73.0844 262° West 135 155 3,200 -246 Descending Boston Center
Wed 10:51:22 PM 41.3853 -73.1336 273° West 134 154 2,800 -344 Descending Boston Center
Wed 10:52:23 PM 41.3878 -73.1839 274° West 134 154 2,500 -344 Descending Boston Center
Wed 10:53:24 PM 41.3858 -73.2317 267° West 134 154 2,100 -344 Descending Boston Center
Wed 10:54:25 PM 41.3831 -73.2756 265° West 128 147 1,800 -246 Descending Boston Center
Wed 10:55:26 PM 41.3914 -73.3156 286° West 121 139 1,600 -148 Descending Boston Center
Wed 10:56:27 PM 41.4017 -73.3508 291° West 112 129 1,500 -98 Descending Boston Center
Wed 10:57:28 PM 41.3994 -73.3878 265° West 105 121 1,400 -49 Descending Boston Center
Wed 10:58:29 PM 41.3900 -73.4222 250° West 104 120 1,400 -98 Level Boston Center
Wed 10:59:30 PM 41.3828 -73.4542 253° West 98 113 1,200 -197 Descending Boston Center
Wed 11:00:31 PM 41.3703 -73.4819 239° Southwest 97 112 1,000 -197 Descending Boston Center

Login

Don't have an account? Register now (free) for customized features, flight alerts, and more!